Time;durP1;ratioP1;P1;durP2;ratioP2;P2;SDS_P1;SDS_P2;PMS_P1;PMS_P2;Temp;Humidity;BMP_temperature;BMP_pressure;BME280_temperature;BME280_humidity;BME280_pressure;Samples;Min_cycle;Max_cycle;Signal;HPM_P1;HPM_P2
2022/04/30 00:02:18;;;;;;;8.87;7.97;;;14.50;99.90;;;;;;4993577;28;21014;-57
2022/04/30 00:04:47;;;;;;;9.93;9.03;;;14.40;99.90;;;;;;4993771;28;20455;-57
2022/04/30 00:07:18;;;;;;;8.70;7.80;;;14.50;99.90;;;;;;4993604;28;20542;-57
2022/04/30 00:09:46;;;;;;;9.60;8.80;;;14.50;99.90;;;;;;4993326;28;20475;-57
2022/04/30 00:12:13;;;;;;;9.70;8.30;;;14.40;99.90;;;;;;4993746;28;20811;-57
2022/04/30 00:14:41;;;;;;;10.40;9.40;;;14.40;99.90;;;;;;4993331;28;20452;-57
2022/04/30 00:17:09;;;;;;;9.20;8.23;;;14.40;99.90;;;;;;4993407;28;20890;-57
2022/04/30 00:19:36;;;;;;;9.00;7.83;;;14.40;99.90;;;;;;4993221;28;20993;-57
2022/04/30 00:22:04;;;;;;;8.10;7.50;;;14.50;99.90;;;;;;4993363;28;20428;-57
2022/04/30 00:24:33;;;;;;;8.90;8.17;;;14.40;99.90;;;;;;4993680;28;20452;-57
2022/04/30 00:27:01;;;;;;;9.30;8.40;;;14.20;99.90;;;;;;4993561;28;20542;-57
2022/04/30 00:29:29;;;;;;;8.73;8.03;;;14.10;99.90;;;;;;4993462;28;20496;-57
2022/04/30 00:31:57;;;;;;;10.03;9.13;;;14.00;99.90;;;;;;4993664;28;20452;-57
2022/04/30 00:34:24;;;;;;;9.63;8.83;;;14.10;99.70;;;;;;4994254;28;20461;-57
2022/04/30 00:36:51;;;;;;;10.23;9.33;;;14.00;99.80;;;;;;4996768;28;20459;-57
2022/04/30 00:39:18;;;;;;;9.47;8.50;;;14.00;99.80;;;;;;4996860;28;20555;-57
2022/04/30 00:41:48;;;;;;;10.93;9.83;;;14.00;99.80;;;;;;4996680;28;20479;-57
2022/04/30 00:44:19;;;;;;;11.73;9.70;;;14.00;99.80;;;;;;4997253;28;20448;-57
2022/04/30 00:46:46;;;;;;;10.77;9.77;;;14.00;99.60;;;;;;4996585;28;21005;-57
2022/04/30 00:49:14;;;;;;;10.30;9.23;;;13.90;99.50;;;;;;4996877;28;20476;-57
2022/04/30 00:51:43;;;;;;;10.40;9.53;;;13.90;99.50;;;;;;4996426;28;20507;-56
2022/04/30 00:54:13;;;;;;;11.13;9.93;;;13.90;99.40;;;;;;4996751;28;20476;-57
2022/04/30 00:56:45;;;;;;;12.30;9.27;;;14.00;99.60;;;;;;4996752;28;20462;-57
2022/04/30 00:59:17;;;;;;;10.50;9.60;;;13.80;99.90;;;;;;4996615;28;20467;-57
2022/04/30 01:01:46;;;;;;;10.30;9.30;;;13.80;99.90;;;;;;4996680;28;20825;-58
2022/04/30 01:04:14;;;;;;;9.93;9.00;;;13.80;99.90;;;;;;4996206;28;20491;-57
2022/04/30 01:06:51;;;;;;;14.57;11.07;;;13.90;99.90;;;;;;4996097;28;20495;-57
2022/04/30 01:09:20;;;;;;;12.00;11.00;;;13.80;99.90;;;;;;4996475;28;20491;-58
2022/04/30 01:11:50;;;;;;;12.53;11.33;;;13.80;99.90;;;;;;4996365;28;20459;-56
2022/04/30 01:14:19;;;;;;;14.10;12.70;;;13.60;99.90;;;;;;4996317;28;20452;-56
2022/04/30 01:16:48;;;;;;;13.90;12.50;;;13.50;99.90;;;;;;4996384;28;20543;-57
2022/04/30 01:19:19;;;;;;;13.27;11.87;;;13.40;99.90;;;;;;4996163;28;20496;-56
2022/04/30 01:21:50;;;;;;;16.60;13.80;;;13.30;99.90;;;;;;4996215;28;20483;-58
2022/04/30 01:24:24;;;;;;;16.17;14.40;;;13.30;99.90;;;;;;4996145;28;20867;-57
2022/04/30 01:26:53;;;;;;;16.33;14.27;;;13.20;99.90;;;;;;4995965;28;20423;-57
2022/04/30 01:29:21;;;;;;;18.70;15.30;;;13.20;99.90;;;;;;4995990;28;20480;-57
2022/04/30 01:37:25;;;;;;;19.83;15.40;;;13.10;99.90;;;;;;4995826;28;20510;-57
2022/04/30 01:39:58;;;;;;;20.90;15.30;;;13.10;99.90;;;;;;4995418;28;20546;-57
2022/04/30 01:42:29;;;;;;;20.13;15.60;;;13.10;99.90;;;;;;4995599;28;20503;-57
2022/04/30 01:44:58;;;;;;;20.60;17.03;;;13.00;99.90;;;;;;4995770;28;20891;-57
2022/04/30 01:47:27;;;;;;;19.37;17.37;;;13.10;99.90;;;;;;4994570;28;20458;-56
2022/04/30 01:49:54;;;;;;;20.03;15.07;;;13.10;99.90;;;;;;4995578;28;20450;-57
2022/04/30 01:52:21;;;;;;;18.43;15.10;;;13.10;99.90;;;;;;4995410;28;20448;-57
2022/04/30 01:54:48;;;;;;;24.10;15.90;;;13.10;99.90;;;;;;4995593;28;20539;-57
2022/04/30 01:57:23;;;;;;;25.10;18.30;;;13.10;99.90;;;;;;4995515;28;20484;-57
2022/04/30 01:59:52;;;;;;;24.33;18.53;;;13.10;99.90;;;;;;4995272;28;20431;-57
2022/04/30 02:02:22;;;;;;;20.63;16.50;;;13.10;99.90;;;;;;4995437;28;20530;-57
2022/04/30 02:04:51;;;;;;;23.40;17.57;;;13.10;99.90;;;;;;4995691;28;20456;-57
2022/04/30 02:07:19;;;;;;;21.17;17.97;;;13.10;99.90;;;;;;4994900;28;20514;-57
2022/04/30 02:09:46;;;;;;;23.60;18.63;;;13.10;99.90;;;;;;4994850;28;20502;-57
2022/04/30 02:12:14;;;;;;;20.80;16.30;;;13.00;99.90;;;;;;4995213;28;20458;-57
2022/04/30 02:14:47;;;;;;;26.63;18.37;;;13.00;99.90;;;;;;4994885;28;20458;-58
2022/04/30 02:17:16;;;;;;;26.03;18.20;;;13.00;99.90;;;;;;4995352;28;20436;-56
2022/04/30 02:22:31;;;;;;;25.43;19.30;;;12.80;99.90;;;;;;4994866;28;20777;-56
2022/04/30 02:24:59;;;;;;;29.00;19.73;;;12.70;99.90;;;;;;4995001;28;20448;-56
2022/04/30 02:27:27;;;;;;;20.90;16.97;;;12.70;99.90;;;;;;4995001;28;20483;-57
2022/04/30 02:29:55;;;;;;;21.77;16.90;;;12.80;99.90;;;;;;4994655;28;20939;-57
2022/04/30 02:32:23;;;;;;;20.10;16.60;;;12.70;99.90;;;;;;4994880;28;20804;-57
2022/04/30 02:34:50;;;;;;;21.10;16.80;;;12.70;99.90;;;;;;4994793;28;20546;-57
2022/04/30 02:37:17;;;;;;;21.97;17.30;;;12.70;99.90;;;;;;4994782;28;20997;-57
2022/04/30 02:39:46;;;;;;;19.07;17.03;;;12.60;99.90;;;;;;4994328;28;20808;-57
2022/04/30 02:42:14;;;;;;;19.67;16.53;;;12.60;99.90;;;;;;4994610;28;20451;-57
2022/04/30 02:44:41;;;;;;;20.27;16.80;;;12.60;99.90;;;;;;4994788;28;20452;-57
2022/04/30 02:47:09;;;;;;;20.27;15.73;;;12.50;99.90;;;;;;4994652;28;20448;-57
2022/04/30 02:49:38;;;;;;;20.10;15.77;;;12.50;99.90;;;;;;4994545;28;20467;-57
2022/04/30 02:52:05;;;;;;;16.90;15.10;;;12.50;99.90;;;;;;4994331;28;20934;-57
2022/04/30 02:54:34;;;;;;;23.63;16.23;;;12.50;99.90;;;;;;4994495;28;20494;-57
2022/04/30 02:57:02;;;;;;;20.47;15.93;;;12.50;99.90;;;;;;4993804;28;21022;-57
2022/04/30 03:02:15;;;;;;;18.57;16.60;;;12.40;99.90;;;;;;4994283;28;20416;-57
2022/04/30 03:04:42;;;;;;;18.30;16.40;;;12.40;99.90;;;;;;4994030;28;20490;-57
2022/04/30 03:07:11;;;;;;;20.37;16.67;;;12.50;99.90;;;;;;4993972;28;20935;-57
2022/04/30 03:09:39;;;;;;;25.13;17.60;;;12.30;99.90;;;;;;4993805;28;20515;-58
2022/04/30 03:12:09;;;;;;;23.40;16.63;;;12.40;99.90;;;;;;4994009;28;20444;-57
2022/04/30 03:14:36;;;;;;;24.00;16.37;;;12.30;99.90;;;;;;4994013;28;20868;-57
2022/04/30 03:22:36;;;;;;;23.30;17.97;;;12.20;99.90;;;;;;4994021;28;20553;-55
2022/04/30 03:25:03;;;;;;;23.90;18.60;;;12.20;99.90;;;;;;4994188;28;20444;-56
2022/04/30 03:27:32;;;;;;;24.63;18.40;;;12.30;99.90;;;;;;4994025;28;20454;-56
2022/04/30 03:29:59;;;;;;;33.53;20.53;;;12.20;99.90;;;;;;4993833;28;20451;-56
2022/04/30 03:32:26;;;;;;;28.30;20.60;;;12.20;99.90;;;;;;4994164;28;20929;-57
2022/04/30 03:34:55;;;;;;;27.80;20.00;;;12.30;99.90;;;;;;4994020;28;20456;-57
2022/04/30 03:37:22;;;;;;;26.23;18.80;;;12.30;99.90;;;;;;4993571;28;20456;-57
2022/04/30 03:39:49;;;;;;;27.97;18.90;;;12.30;99.90;;;;;;4993792;28;20448;-56
2022/04/30 03:42:16;;;;;;;29.60;21.70;;;12.30;99.90;;;;;;4993419;28;20994;-56
2022/04/30 03:44:43;;;;;;;29.53;21.07;;;12.20;99.90;;;;;;4993992;28;20455;-56
2022/04/30 03:47:10;;;;;;;28.90;21.63;;;12.00;99.90;;;;;;4994045;28;20455;-56
2022/04/30 03:49:38;;;;;;;28.90;21.87;;;11.90;99.90;;;;;;4994208;28;20467;-57
2022/04/30 03:52:10;;;;;;;30.30;23.40;;;12.00;99.90;;;;;;4993620;28;20928;-56
2022/04/30 03:54:37;;;;;;;28.10;22.07;;;12.10;99.90;;;;;;4993921;28;20436;-57
2022/04/30 03:57:05;;;;;;;26.93;20.47;;;12.10;99.90;;;;;;4993648;28;20969;-56
2022/04/30 03:59:32;;;;;;;33.67;22.73;;;12.00;99.90;;;;;;4993826;28;20478;-57
2022/04/30 04:01:59;;;;;;;28.17;23.93;;;11.90;99.90;;;;;;4993750;28;20488;-57
2022/04/30 04:04:27;;;;;;;30.57;23.53;;;11.80;99.90;;;;;;4993572;28;20452;-57
2022/04/30 04:06:54;;;;;;;33.30;24.13;;;11.80;99.90;;;;;;4993544;28;20459;-57
2022/04/30 04:09:23;;;;;;;29.87;23.90;;;11.80;99.90;;;;;;4993850;28;20479;-57
2022/04/30 04:11:50;;;;;;;36.40;25.50;;;11.80;99.90;;;;;;4997223;28;20444;-57
2022/04/30 04:19:46;;;;;;;27.90;23.33;;;11.80;99.90;;;;;;4997158;28;20930;-57
2022/04/30 04:22:13;;;;;;;34.87;24.90;;;11.80;99.90;;;;;;4997235;28;20877;-57
2022/04/30 04:27:29;;;;;;;34.37;25.33;;;11.70;99.90;;;;;;4997140;28;20795;-56
2022/04/30 04:29:56;;;;;;;30.10;24.00;;;11.70;99.90;;;;;;4997195;28;20447;-56
2022/04/30 04:32:24;;;;;;;34.40;23.80;;;11.80;99.90;;;;;;4997178;28;20473;-58
2022/04/30 04:34:51;;;;;;;29.00;23.67;;;11.70;99.90;;;;;;4996897;28;20935;-56
2022/04/30 04:37:20;;;;;;;31.13;23.70;;;11.70;99.90;;;;;;4996828;28;20494;-57
2022/04/30 04:39:49;;;;;;;34.30;26.00;;;11.60;99.90;;;;;;4996995;28;20799;-57
2022/04/30 04:42:19;;;;;;;29.73;23.50;;;11.70;99.90;;;;;;4996751;28;20487;-57
2022/04/30 04:44:46;;;;;;;32.57;24.07;;;11.60;99.90;;;;;;4996661;28;20942;-56
2022/04/30 04:47:13;;;;;;;31.73;25.10;;;11.50;99.90;;;;;;4996499;28;20447;-56
2022/04/30 04:49:42;;;;;;;31.10;26.43;;;11.50;99.90;;;;;;4996434;28;20562;-56
2022/04/30 04:52:10;;;;;;;33.23;22.80;;;11.60;99.90;;;;;;4996562;28;20491;-56
2022/04/30 04:54:37;;;;;;;30.93;25.40;;;11.60;99.90;;;;;;4996472;28;20923;-56
2022/04/30 04:57:06;;;;;;;36.83;26.27;;;11.60;99.90;;;;;;4996264;28;20543;-56
2022/04/30 04:59:33;;;;;;;32.97;23.93;;;11.50;99.90;;;;;;4996356;28;20506;-56
2022/04/30 05:02:02;;;;;;;34.33;25.23;;;11.60;99.90;;;;;;4996543;28;20484;-56
2022/04/30 05:04:29;;;;;;;30.70;24.60;;;11.70;99.90;;;;;;4996572;28;20460;-56
2022/04/30 05:06:57;;;;;;;34.53;22.77;;;11.90;99.90;;;;;;4996171;28;20463;-56
2022/04/30 05:09:25;;;;;;;34.43;25.80;;;11.80;99.90;;;;;;4996337;28;21061;-56
2022/04/30 05:11:52;;;;;;;31.03;24.80;;;11.80;99.90;;;;;;4996234;28;20444;-57
2022/04/30 05:14:21;;;;;;;35.73;25.50;;;11.80;99.90;;;;;;4996042;28;20480;-57
2022/04/30 05:16:48;;;;;;;30.37;22.47;;;11.80;99.90;;;;;;4996074;28;20460;-57
2022/04/30 05:19:15;;;;;;;31.07;24.47;;;11.60;99.90;;;;;;4996176;28;20872;-56
2022/04/30 05:21:43;;;;;;;37.47;26.83;;;11.50;99.90;;;;;;4995867;28;20488;-56
2022/04/30 05:24:10;;;;;;;33.93;23.73;;;11.40;99.90;;;;;;4996189;28;20459;-57
2022/04/30 05:26:37;;;;;;;32.57;23.83;;;11.50;99.90;;;;;;4995783;28;20464;-56
2022/04/30 05:29:04;;;;;;;35.53;24.70;;;11.50;99.90;;;;;;4995977;28;20468;-57
2022/04/30 05:31:33;;;;;;;34.47;26.40;;;11.50;99.90;;;;;;4996132;28;20800;-57
2022/04/30 05:34:00;;;;;;;37.27;26.70;;;11.60;99.90;;;;;;4996016;28;20448;-57
2022/04/30 05:36:27;;;;;;;33.27;25.90;;;11.50;99.90;;;;;;4995598;28;20483;-57
2022/04/30 05:38:54;;;;;;;33.13;26.23;;;11.50;99.90;;;;;;4995580;28;20978;-56
2022/04/30 05:41:21;;;;;;;33.50;26.17;;;11.40;99.90;;;;;;4995743;28;20484;-56
2022/04/30 05:43:48;;;;;;;35.53;26.93;;;11.40;99.90;;;;;;4995762;28;20543;-56
2022/04/30 05:46:15;;;;;;;33.00;26.90;;;11.50;99.90;;;;;;4995500;28;20452;-57
2022/04/30 05:48:44;;;;;;;34.73;24.80;;;11.50;99.90;;;;;;4995658;28;20474;-57
2022/04/30 05:51:11;;;;;;;35.57;25.50;;;11.50;99.90;;;;;;4995573;28;20502;-57
2022/04/30 05:53:38;;;;;;;36.03;26.10;;;11.50;99.90;;;;;;4995620;28;20931;-57
2022/04/30 05:56:06;;;;;;;34.37;25.90;;;11.50;99.90;;;;;;4995500;28;20448;-57
2022/04/30 05:58:33;;;;;;;29.50;23.83;;;11.60;99.90;;;;;;4995093;28;21005;-57
2022/04/30 06:01:01;;;;;;;36.10;24.70;;;11.60;99.90;;;;;;4995462;28;20448;-57
2022/04/30 06:03:31;;;;;;;33.23;26.10;;;11.50;99.90;;;;;;4995552;28;20439;-57
2022/04/30 06:05:59;;;;;;;32.03;25.60;;;11.40;99.90;;;;;;4995404;28;20448;-57
2022/04/30 06:08:27;;;;;;;37.33;25.23;;;11.50;99.90;;;;;;4994685;28;20603;-57
2022/04/30 06:10:54;;;;;;;30.50;25.90;;;11.60;99.90;;;;;;4995407;28;20425;-57
2022/04/30 06:13:21;;;;;;;31.20;25.97;;;11.70;99.90;;;;;;4995065;28;20479;-56
2022/04/30 06:15:49;;;;;;;33.50;24.40;;;11.80;99.90;;;;;;4995220;28;20514;-56
2022/04/30 06:18:16;;;;;;;27.90;22.60;;;11.80;99.90;;;;;;4994819;28;20464;-56
2022/04/30 06:20:44;;;;;;;30.40;24.33;;;11.80;99.90;;;;;;4994980;28;20546;-56
2022/04/30 06:23:15;;;;;;;29.67;24.90;;;11.90;99.90;;;;;;4994948;28;20575;-56
2022/04/30 06:25:43;;;;;;;36.80;23.30;;;11.90;99.90;;;;;;4994676;28;20529;-56
2022/04/30 06:28:11;;;;;;;30.17;24.17;;;11.90;99.90;;;;;;4994390;28;20499;-57
2022/04/30 06:30:39;;;;;;;27.30;23.13;;;11.90;99.90;;;;;;4994619;28;20452;-57
2022/04/30 06:33:06;;;;;;;27.00;22.70;;;12.00;99.90;;;;;;4993931;28;20965;-57
2022/04/30 06:35:33;;;;;;;33.30;24.23;;;11.90;99.90;;;;;;4994724;28;20543;-57
2022/04/30 06:38:01;;;;;;;29.97;22.00;;;11.80;99.90;;;;;;4994362;28;20480;-57
2022/04/30 06:40:29;;;;;;;28.57;22.17;;;12.00;99.90;;;;;;4994828;28;20599;-57
2022/04/30 06:42:56;;;;;;;28.00;21.70;;;12.00;99.90;;;;;;4994597;28;20492;-57
2022/04/30 06:45:24;;;;;;;32.70;24.03;;;12.10;99.90;;;;;;4994589;28;20548;-57
2022/04/30 06:47:51;;;;;;;30.10;21.57;;;12.40;99.90;;;;;;4994199;28;20475;-57
2022/04/30 06:50:18;;;;;;;29.50;23.70;;;12.30;99.90;;;;;;4994657;28;20834;-56
2022/04/30 06:58:17;;;;;;;28.43;21.73;;;12.10;99.90;;;;;;4994132;28;20454;-56
2022/04/30 07:03:29;;;;;;;32.70;22.53;;;12.10;99.90;;;;;;4990560;28;20436;-58
2022/04/30 07:06:03;;;;;;;28.40;22.23;;;12.10;99.90;;;;;;4994075;28;20452;-57
2022/04/30 07:08:31;;;;;;;28.00;21.53;;;12.20;99.90;;;;;;4994033;28;20491;-56
2022/04/30 07:11:00;;;;;;;28.83;21.40;;;12.10;99.90;;;;;;4994239;28;20515;-56
2022/04/30 07:13:29;;;;;;;24.70;19.57;;;11.90;99.90;;;;;;4993759;28;21021;-56
2022/04/30 07:15:57;;;;;;;27.53;20.97;;;12.00;99.90;;;;;;4993259;28;20447;-57
2022/04/30 07:18:24;;;;;;;29.30;22.40;;;12.00;99.90;;;;;;4993621;28;21063;-57
2022/04/30 07:20:53;;;;;;;28.53;21.23;;;12.20;99.90;;;;;;4994070;28;20538;-57
2022/04/30 07:23:21;;;;;;;18.83;16.23;;;12.10;99.90;;;;;;4993742;28;20827;-59
2022/04/30 07:25:48;;;;;;;5.97;5.47;;;13.90;99.90;;;;;;4993784;28;20915;-59
2022/04/30 07:28:17;;;;;;;11.57;10.30;;;15.60;99.90;;;;;;4993554;28;20475;-59
2022/04/30 07:30:44;;;;;;;20.93;16.13;;;17.30;99.90;;;;;;4994091;28;20543;-59
2022/04/30 07:33:11;;;;;;;9.80;8.63;;;16.40;99.90;;;;;;4992345;28;20443;-59
2022/04/30 07:35:39;;;;;;;7.63;7.00;;;16.90;99.90;;;;;;4993773;28;20548;-59
2022/04/30 07:38:06;;;;;;;9.60;8.60;;;18.20;99.90;;;;;;4993610;28;21002;-60
2022/04/30 07:40:35;;;;;;;10.67;8.30;;;18.00;99.90;;;;;;4993455;28;20490;-60
2022/04/30 07:43:02;;;;;;;7.00;6.30;;;18.10;99.90;;;;;;4993559;28;20480;-59
2022/04/30 07:45:31;;;;;;;9.17;8.20;;;19.00;99.90;;;;;;4997436;28;20446;-59
2022/04/30 07:47:58;;;;;;;6.83;6.20;;;19.30;99.90;;;;;;4997612;28;20474;-65
2022/04/30 07:50:26;;;;;;;17.70;15.00;;;19.10;99.90;;;;;;4997480;28;20459;-64
2022/04/30 07:52:53;;;;;;;20.80;14.67;;;17.50;99.90;;;;;;4994944;28;20495;-58
2022/04/30 07:55:21;;;;;;;16.53;14.80;;;16.30;99.90;;;;;;4971734;28;20488;-63
2022/04/30 07:57:48;;;;;;;11.60;10.07;;;15.50;99.90;;;;;;4969418;28;20468;-59
2022/04/30 08:00:16;;;;;;;17.97;14.73;;;15.70;99.90;;;;;;4972479;28;20453;-62
2022/04/30 08:02:46;;;;;;;11.40;9.43;;;16.30;99.90;;;;;;4973994;28;20485;-57
2022/04/30 08:05:13;;;;;;;16.07;13.37;;;16.50;99.90;;;;;;4968437;28;20453;-65
2022/04/30 08:07:40;;;;;;;10.87;9.77;;;16.70;99.90;;;;;;4962661;28;20460;-58
2022/04/30 08:10:08;;;;;;;9.80;8.80;;;17.00;99.90;;;;;;4975354;28;20491;-62
2022/04/30 08:12:35;;;;;;;14.40;10.93;;;17.20;99.90;;;;;;4976275;28;20472;-62
2022/04/30 08:15:06;;;;;;;10.53;8.80;;;16.40;99.90;;;;;;4977594;28;20475;-59
2022/04/30 08:17:34;;;;;;;15.43;13.97;;;16.30;99.90;;;;;;4969242;28;20518;-58
2022/04/30 08:20:03;;;;;;;11.83;10.23;;;17.00;99.90;;;;;;4967996;28;20956;-59
2022/04/30 08:22:30;;;;;;;16.93;13.50;;;16.80;99.90;;;;;;4967055;28;20487;-56
2022/04/30 08:24:57;;;;;;;13.83;9.57;;;17.60;99.90;;;;;;4963594;28;20467;-61
2022/04/30 08:27:24;;;;;;;15.70;13.50;;;17.30;99.90;;;;;;4970833;28;21027;-55
2022/04/30 08:29:51;;;;;;;13.17;8.60;;;17.50;99.90;;;;;;4958693;28;20464;-59
2022/04/30 08:32:19;;;;;;;9.67;8.20;;;17.60;99.90;;;;;;4957697;28;20442;-58
2022/04/30 08:34:47;;;;;;;11.80;9.43;;;18.10;99.90;;;;;;4957651;28;20453;-60
2022/04/30 08:37:15;;;;;;;9.30;8.37;;;17.90;99.90;;;;;;4960452;28;20473;-57
2022/04/30 08:39:43;;;;;;;9.30;7.20;;;18.70;99.90;;;;;;4964907;28;20840;-57
2022/04/30 08:42:10;;;;;;;15.93;12.90;;;19.10;99.90;;;;;;4963844;28;20568;-59
2022/04/30 08:44:40;;;;;;;10.77;7.30;;;18.20;99.90;;;;;;4967720;28;20460;-57
2022/04/30 08:47:10;;;;;;;12.50;10.33;;;18.20;99.90;;;;;;4964720;28;20817;-64
2022/04/30 08:49:41;;;;;;;11.67;10.47;;;16.50;99.90;;;;;;4967529;28;20474;-59
2022/04/30 08:52:08;;;;;;;9.10;8.20;;;16.30;99.90;;;;;;4965868;28;20453;-62
2022/04/30 08:54:37;;;;;;;12.87;10.10;;;16.60;99.90;;;;;;4956872;28;20461;-60
2022/04/30 08:57:04;;;;;;;12.70;8.40;;;17.40;99.90;;;;;;4970025;28;20457;-62
2022/04/30 08:59:32;;;;;;;10.90;9.20;;;18.30;99.90;;;;;;4964818;28;20572;-62
2022/04/30 09:02:00;;;;;;;13.97;12.13;;;17.80;99.90;;;;;;4976433;28;20673;-60
2022/04/30 09:04:27;;;;;;;10.57;9.47;;;16.80;99.90;;;;;;4976443;28;20457;-59
2022/04/30 09:06:56;;;;;;;12.40;10.43;;;17.20;99.90;;;;;;4976731;28;20471;-64
2022/04/30 09:09:25;;;;;;;12.30;11.10;;;16.80;99.90;;;;;;4975981;28;20491;-60
2022/04/30 09:11:56;;;;;;;7.33;6.50;;;17.20;99.90;;;;;;4976251;28;20483;-60
2022/04/30 09:14:27;;;;;;;8.10;6.40;;;17.50;99.90;;;;;;4976258;28;20747;-62
2022/04/30 09:17:05;;;;;;;9.93;7.63;;;17.70;99.90;;;;;;4976557;28;20460;-65
2022/04/30 09:19:33;;;;;;;13.17;10.63;;;18.20;99.90;;;;;;4976446;28;20480;-65
2022/04/30 09:22:00;;;;;;;8.07;5.97;;;17.80;99.90;;;;;;4975275;28;20464;-60
2022/04/30 09:24:28;;;;;;;7.07;6.40;;;17.80;99.90;;;;;;4976035;28;20826;-61
2022/04/30 09:27:04;;;;;;;9.37;7.60;;;17.50;99.90;;;;;;4976251;28;20818;-65
2022/04/30 09:29:31;;;;;;;8.10;6.40;;;17.70;99.90;;;;;;4976160;28;20587;-57
2022/04/30 09:31:58;;;;;;;9.67;8.77;;;18.20;99.90;;;;;;4976005;28;20449;-58
2022/04/30 09:39:56;;;;;;;11.27;9.30;;;17.10;99.90;;;;;;4971003;28;20420;-59
2022/04/30 09:42:25;;;;;;;8.23;7.33;;;16.50;99.90;;;;;;4975801;28;20484;-59
2022/04/30 09:44:53;;;;;;;12.23;8.20;;;17.30;99.90;;;;;;4975506;28;20531;-59
2022/04/30 09:47:20;;;;;;;9.13;8.23;;;17.40;99.90;;;;;;4975362;28;20453;-58
2022/04/30 09:55:32;;;;;;;8.07;6.00;;;18.70;99.90;;;;;;4934883;29;20438;-61
2022/04/30 09:58:03;;;;;;;8.27;7.57;;;18.20;99.90;;;;;;4934729;29;20658;-66
2022/04/30 10:00:32;;;;;;;8.07;5.70;;;18.20;99.90;;;;;;4953418;28;20537;-58
2022/04/30 10:03:02;;;;;;;6.30;5.53;;;17.90;99.90;;;;;;4975638;28;20513;-56
2022/04/30 10:05:32;;;;;;;7.13;6.23;;;18.80;99.90;;;;;;4975735;28;20439;-59
2022/04/30 10:08:00;;;;;;;8.43;7.63;;;18.30;99.90;;;;;;4974531;28;20485;-59
2022/04/30 10:10:36;;;;;;;8.63;6.70;;;18.00;99.90;;;;;;4973904;28;20469;-58
2022/04/30 10:13:16;;;;;;;8.53;6.93;;;17.80;99.90;;;;;;4975263;28;20519;-61
2022/04/30 10:15:51;;;;;;;11.27;8.73;;;17.40;99.90;;;;;;4974764;28;20441;-68
2022/04/30 10:18:23;;;;;;;7.43;4.17;;;17.50;99.90;;;;;;4975342;28;20826;-59
2022/04/30 10:20:52;;;;;;;8.43;7.70;;;17.00;99.90;;;;;;4974899;28;20437;-57
2022/04/30 10:23:21;;;;;;;10.57;9.60;;;15.40;99.90;;;;;;4975123;28;20484;-59
2022/04/30 10:25:49;;;;;;;10.50;7.70;;;15.70;99.90;;;;;;4975086;28;20535;-56
2022/04/30 10:28:58;;;;;;;6.53;5.33;;;16.10;99.90;;;;;;5202161;27;20528;-62
2022/04/30 10:31:26;;;;;;;8.00;6.00;;;17.70;99.90;;;;;;5193627;27;20427;-58
2022/04/30 10:33:53;;;;;;;7.43;6.10;;;;;;;;;;5192741;27;20861;-60
2022/04/30 10:36:22;;;;;;;8.27;7.40;;;18.80;99.90;;;;;;5193807;27;20498;-56
2022/04/30 10:38:59;;;;;;;11.80;6.70;;;17.90;99.90;;;;;;5193358;27;20573;-58
2022/04/30 10:41:27;;;;;;;8.40;7.40;;;18.90;99.90;;;;;;5172734;27;20961;-63
2022/04/30 10:44:04;;;;;;;10.20;6.90;;;19.10;99.90;;;;;;5180598;27;20890;-61
2022/04/30 10:46:37;;;;;;;7.63;6.37;;;18.90;99.90;;;;;;5181446;27;20477;-58
2022/04/30 10:49:06;;;;;;;8.00;6.17;;;17.30;99.90;;;;;;5181820;27;20554;-59
2022/04/30 10:51:39;;;;;;;7.30;6.20;;;17.50;99.90;;;;;;5181973;27;20447;-60
2022/04/30 10:54:10;;;;;;;8.80;5.93;;;18.10;99.90;;;;;;5181911;27;20444;-57
2022/04/30 10:56:38;;;;;;;6.80;4.73;;;17.70;99.90;;;;;;5181066;27;20435;-60
2022/04/30 10:59:07;;;;;;;7.90;7.20;;;18.20;99.90;;;;;;5180575;27;20527;-56
2022/04/30 11:01:35;;;;;;;4.90;4.30;;;18.30;99.90;;;;;;5180951;27;20957;-59
2022/04/30 11:04:03;;;;;;;5.80;4.83;;;18.50;99.90;;;;;;5181418;27;20451;-56
2022/04/30 11:06:33;;;;;;;6.60;3.70;;;18.10;99.90;;;;;;5180501;27;20483;-56
2022/04/30 11:09:02;;;;;;;3.57;3.27;;;18.10;99.90;;;;;;5181112;27;20547;-59
2022/04/30 11:11:31;;;;;;;4.60;4.20;;;18.20;99.90;;;;;;5185113;27;20439;-62
2022/04/30 11:14:02;;;;;;;3.87;3.57;;;18.10;99.90;;;;;;5184593;27;21066;-58
2022/04/30 11:16:35;;;;;;;3.10;2.80;;;18.40;99.90;;;;;;5182675;27;21006;-55
2022/04/30 11:19:06;;;;;;;3.47;3.17;;;18.50;99.90;;;;;;5182102;27;20468;-60
2022/04/30 11:21:35;;;;;;;3.27;2.97;;;18.60;99.90;;;;;;5181229;27;20917;-57
2022/04/30 11:24:02;;;;;;;2.63;2.33;;;18.70;99.90;;;;;;5180907;27;20936;-57
2022/04/30 11:26:30;;;;;;;4.43;3.60;;;18.60;99.90;;;;;;5180725;27;20988;-55
2022/04/30 11:28:58;;;;;;;3.47;3.17;;;18.60;99.90;;;;;;5181335;27;20463;-58
2022/04/30 11:31:25;;;;;;;4.37;3.20;;;18.70;99.90;;;;;;5181504;27;20443;-55
2022/04/30 11:33:54;;;;;;;4.17;3.80;;;19.00;99.90;;;;;;5180959;27;20471;-55
2022/04/30 11:36:21;;;;;;;3.10;2.90;;;19.10;99.90;;;;;;5181341;27;20447;-56
2022/04/30 11:38:52;;;;;;;5.03;4.63;;;19.00;99.90;;;;;;5172915;27;20460;-58
2022/04/30 11:41:20;;;;;;;4.17;3.83;;;18.50;99.90;;;;;;5166751;27;20448;-59
2022/04/30 11:43:58;;;;;;;3.47;2.80;;;17.90;99.90;;;;;;5167430;27;20542;-57
2022/04/30 11:46:25;;;;;;;5.97;3.80;;;19.00;99.90;;;;;;5166806;27;20457;-60
2022/04/30 11:48:54;;;;;;;3.60;3.30;;;18.90;99.90;;;;;;5167518;27;20467;-61
2022/04/30 11:51:23;;;;;;;3.07;2.87;;;19.30;99.90;;;;;;5167659;27;20426;-63
2022/04/30 11:53:50;;;;;;;3.50;3.20;;;19.50;99.90;;;;;;5164384;27;20531;-63
2022/04/30 11:56:17;;;;;;;3.60;3.33;;;19.40;99.90;;;;;;5165243;27;21644;-63
2022/04/30 11:58:45;;;;;;;3.13;2.93;;;18.80;99.90;;;;;;5167207;27;20490;-59
2022/04/30 12:01:25;;;;;;;3.30;2.97;;;19.10;99.90;;;;;;5162688;27;21352;-58
2022/04/30 12:04:00;;;;;;;2.90;2.70;;;19.20;99.90;;;;;;5165097;27;20839;-58
2022/04/30 12:06:28;;;;;;;4.90;4.50;;;19.60;99.90;;;;;;5161838;27;20531;-61
2022/04/30 12:08:55;;;;;;;5.50;5.00;;;20.00;99.90;;;;;;5162826;27;20792;-57
2022/04/30 12:11:23;;;;;;;2.70;2.50;;;19.40;99.90;;;;;;5161867;27;20583;-61
2022/04/30 12:14:04;;;;;;;3.53;3.23;;;19.20;99.90;;;;;;5163231;27;20445;-56
2022/04/30 12:16:37;;;;;;;3.60;3.30;;;19.00;99.90;;;;;;5165060;27;20858;-59
2022/04/30 12:24:43;;;;;;;4.20;3.90;;;18.30;99.90;;;;;;5166495;27;20420;-58
2022/04/30 12:27:11;;;;;;;4.03;3.73;;;;;;;;;;5165909;27;21000;-59
2022/04/30 12:29:38;;;;;;;4.27;3.87;;;19.30;99.90;;;;;;5165866;27;20467;-58
2022/04/30 12:32:07;;;;;;;4.13;3.73;;;19.20;99.90;;;;;;5166044;27;20444;-59
2022/04/30 12:34:40;;;;;;;3.20;3.00;;;19.70;99.90;;;;;;5165722;27;20455;-58
2022/04/30 12:37:08;;;;;;;3.20;3.00;;;18.00;99.90;;;;;;5166052;27;20917;-57
2022/04/30 12:39:36;;;;;;;3.03;2.73;;;18.00;99.90;;;;;;5166023;27;20555;-65
2022/04/30 12:42:08;;;;;;;10.60;3.67;;;18.70;99.90;;;;;;5166017;27;20424;-67
2022/04/30 12:44:35;;;;;;;5.37;4.97;;;17.90;99.90;;;;;;5165616;27;20950;-56
2022/04/30 12:47:02;;;;;;;6.73;5.77;;;17.00;99.90;;;;;;5166258;27;20516;-56
2022/04/30 12:49:30;;;;;;;6.17;5.50;;;16.20;99.90;;;;;;5165501;27;20807;-56
2022/04/30 12:51:58;;;;;;;5.83;5.27;;;15.80;99.90;;;;;;5165131;27;20444;-55
2022/04/30 12:54:25;;;;;;;5.63;5.13;;;15.40;99.90;;;;;;5164126;27;20528;-54
2022/04/30 12:56:53;;;;;;;6.27;5.50;;;15.10;99.90;;;;;;5156379;27;21003;-55
2022/04/30 12:59:20;;;;;;;5.87;5.37;;;15.10;99.90;;;;;;5156050;27;20854;-55
2022/04/30 13:01:47;;;;;;;6.03;5.43;;;15.10;99.90;;;;;;5156470;27;20441;-56
2022/04/30 13:04:14;;;;;;;5.87;5.37;;;14.90;99.90;;;;;;5156123;27;20441;-56
2022/04/30 13:06:42;;;;;;;6.37;5.73;;;14.60;99.90;;;;;;5156235;27;20447;-55
2022/04/30 13:14:40;;;;;;;7.60;6.90;;;13.80;99.90;;;;;;5166507;27;21119;-60
2022/04/30 13:17:07;;;;;;;7.57;6.83;;;13.70;99.90;;;;;;5176611;27;20508;-60
2022/04/30 13:19:34;;;;;;;8.37;7.67;;;13.80;99.90;;;;;;5176725;27;20499;-56
2022/04/30 13:22:02;;;;;;;10.43;9.40;;;13.80;99.90;;;;;;5175774;27;20500;-59
2022/04/30 13:24:33;;;;;;;11.70;10.50;;;13.80;99.90;;;;;;5174622;27;20534;-59
2022/04/30 13:27:00;;;;;;;11.47;10.27;;;13.60;99.90;;;;;;5175548;27;20483;-58
2022/04/30 13:29:27;;;;;;;11.90;10.70;;;13.70;99.90;;;;;;5176150;27;20460;-58
2022/04/30 13:31:55;;;;;;;12.37;11.10;;;13.70;99.90;;;;;;5176467;27;20806;-58
2022/04/30 13:34:22;;;;;;;13.80;12.20;;;13.50;99.90;;;;;;5176405;27;20512;-58
2022/04/30 13:36:50;;;;;;;13.07;11.10;;;13.60;99.90;;;;;;5176416;27;20933;-59
2022/04/30 13:39:18;;;;;;;11.40;10.30;;;13.60;99.90;;;;;;5176468;27;21056;-59